createdAt,value
2022-10-04T00:04:17.842Z,98466.06
2022-10-04T00:09:24.382Z,98456.50
2022-10-04T00:14:30.947Z,98464.50
2022-10-04T00:19:42.287Z,98454.59
2022-10-04T00:25:02.879Z,98465.81
2022-10-04T00:30:04.467Z,98463.66
2022-10-04T00:35:24.738Z,98455.84
2022-10-04T00:40:31.946Z,98450.66
2022-10-04T00:45:58.431Z,98459.72
2022-10-04T00:51:16.579Z,98452.13
2022-10-04T00:56:29.752Z,98450.31
2022-10-04T01:01:35.529Z,98454.84
2022-10-04T01:06:38.018Z,98447.09
2022-10-04T01:11:51.267Z,98441.06
2022-10-04T01:16:53.547Z,98450.81
2022-10-04T01:22:09.561Z,98445.97
2022-10-04T01:27:40.329Z,98445.63
2022-10-04T01:32:44.986Z,98447.59
2022-10-04T01:37:47.043Z,98449.69
2022-10-04T01:42:55.034Z,98446.44
2022-10-04T01:48:00.940Z,98445.78
2022-10-04T01:53:15.437Z,98451.47
2022-10-04T01:58:28.141Z,98441.72
2022-10-04T02:03:36.232Z,98439.09
2022-10-04T02:08:45.582Z,98439.28
2022-10-04T02:13:54.694Z,98435.88
2022-10-04T02:18:57.202Z,98429.84
2022-10-04T02:23:58.933Z,98433.09
2022-10-04T02:29:03.377Z,98429.50
2022-10-04T02:34:05.726Z,98430.47
2022-10-04T02:39:15.524Z,98420.88
2022-10-04T02:44:29.680Z,98420.06
2022-10-04T02:49:55.817Z,98412.63
2022-10-04T02:55:06.677Z,98418.56
2022-10-04T03:00:21.052Z,98412.09
2022-10-04T03:05:24.409Z,98401.63
2022-10-04T03:10:26.211Z,98397.41
2022-10-04T03:15:28.140Z,98405.50
2022-10-04T03:20:29.887Z,98407.19
2022-10-04T03:25:42.547Z,98398.88
2022-10-04T03:30:46.559Z,98397.16
2022-10-04T03:35:53.166Z,98401.88
2022-10-04T03:41:00.837Z,98394.00
2022-10-04T03:46:05.464Z,98406.88
2022-10-04T03:51:13.983Z,98397.28
2022-10-04T03:56:24.721Z,98391.94
2022-10-04T04:01:34.759Z,98392.06
2022-10-04T04:07:02.959Z,98395.81
2022-10-04T04:12:10.903Z,98388.44
2022-10-04T04:17:35.779Z,98401.97
2022-10-04T04:22:37.792Z,98393.56
2022-10-04T04:27:41.951Z,98395.44
2022-10-04T04:32:52.657Z,98393.53
2022-10-04T04:38:26.913Z,98388.91
2022-10-04T04:43:28.596Z,98388.00
2022-10-04T04:48:32.009Z,98391.75
2022-10-04T04:53:33.719Z,98394.34
2022-10-04T04:58:46.531Z,98390.53
2022-10-04T05:04:13.925Z,98395.81
2022-10-04T05:09:41.875Z,98396.38
2022-10-04T05:14:53.872Z,98398.09
2022-10-04T05:20:00.489Z,98394.38
2022-10-04T05:25:09.326Z,98403.84
2022-10-04T05:30:31.465Z,98412.44
2022-10-04T05:36:04.951Z,98408.06
2022-10-04T05:41:14.330Z,98415.22
2022-10-04T05:46:34.982Z,98418.53
2022-10-04T05:51:53.895Z,98409.81
2022-10-04T05:57:33.456Z,98410.13
2022-10-04T06:02:51.290Z,98415.50
2022-10-04T06:08:17.988Z,98413.13
2022-10-04T06:13:46.823Z,98415.44
2022-10-04T06:19:10.252Z,98406.88
2022-10-04T06:24:22.035Z,98411.78
2022-10-04T06:29:42.505Z,98416.53
2022-10-04T06:34:59.062Z,98420.00
2022-10-04T06:40:29.394Z,98418.22
2022-10-04T06:45:55.620Z,98428.38
2022-10-04T06:51:11.149Z,98431.94
2022-10-04T06:56:38.107Z,98427.09
2022-10-04T07:02:04.140Z,98434.09
2022-10-04T07:07:24.941Z,98425.28
2022-10-04T07:12:28.670Z,98437.84
2022-10-04T07:17:37.499Z,98437.03
2022-10-04T07:22:49.296Z,98447.94
2022-10-04T07:28:14.182Z,98448.56
2022-10-04T07:33:22.163Z,98444.97
2022-10-04T07:38:29.321Z,98472.81
2022-10-04T07:43:46.268Z,98473.63
2022-10-04T07:48:51.748Z,98464.78
2022-10-04T07:54:03.138Z,98464.69
2022-10-04T07:59:34.924Z,98475.41
2022-10-04T08:05:00.080Z,98468.69
2022-10-04T08:10:23.150Z,98473.03
2022-10-04T08:15:33.861Z,98481.06
2022-10-04T08:20:58.242Z,98490.75
2022-10-04T08:26:02.932Z,98487.63
2022-10-04T08:31:24.853Z,98480.66
2022-10-04T08:36:57.350Z,98490.03
2022-10-04T08:42:29.672Z,98491.09
2022-10-04T08:48:02.126Z,98485.50
2022-10-04T08:54:01.098Z,98496.16
2022-10-04T08:59:27.123Z,98486.97
2022-10-04T11:08:59.296Z,98501.84
2022-10-04T11:14:11.800Z,98496.56
2022-10-04T11:20:07.606Z,98498.09
2022-10-04T11:25:43.737Z,98497.88
2022-10-04T11:31:04.554Z,98488.81
2022-10-04T11:36:25.498Z,98490.50
2022-10-04T11:41:47.714Z,98486.69
2022-10-04T11:47:27.050Z,98481.44
2022-10-04T11:52:38.016Z,98463.38
2022-10-04T11:57:48.128Z,98465.25
2022-10-04T12:03:11.610Z,98448.41
2022-10-04T12:08:19.853Z,98444.00
2022-10-04T12:13:58.611Z,98444.97
2022-10-04T12:19:07.620Z,98443.06
2022-10-04T12:24:24.741Z,98445.69
2022-10-04T12:29:29.541Z,98447.03
2022-10-04T12:35:10.444Z,98435.19
2022-10-04T12:40:12.307Z,98429.44
2022-10-04T12:45:29.982Z,98426.59
2022-10-04T12:50:31.817Z,98430.44
2022-10-04T12:56:10.986Z,98434.06
2022-10-04T13:01:50.096Z,98420.84
2022-10-04T13:07:09.649Z,98410.47
2022-10-04T13:12:43.882Z,98414.66
2022-10-04T13:18:04.557Z,98412.84
2022-10-04T13:23:45.245Z,98433.22
2022-10-04T13:29:07.322Z,98406.72
2022-10-04T13:34:27.578Z,98415.38
2022-10-04T13:39:32.380Z,98402.66
2022-10-04T13:45:02.769Z,98386.09
2022-10-04T13:50:26.546Z,98386.91
2022-10-04T13:56:18.257Z,98390.13
2022-10-04T14:01:20.020Z,98384.03
2022-10-04T14:06:40.514Z,98370.56
2022-10-04T14:12:04.495Z,98373.44
2022-10-04T14:17:15.512Z,98380.94
2022-10-04T14:22:23.289Z,98374.84
2022-10-04T14:27:46.531Z,98371.81
2022-10-04T14:33:19.225Z,98369.41
2022-10-04T14:38:34.348Z,98364.53
2022-10-04T14:44:10.552Z,98365.94
2022-10-04T14:49:51.697Z,98361.31
2022-10-04T14:55:07.430Z,98350.56
2022-10-04T15:00:18.808Z,98345.75
2022-10-04T15:05:59.994Z,98339.28
2022-10-04T15:11:07.891Z,98335.63
2022-10-04T15:16:37.951Z,98326.09
2022-10-04T15:22:00.216Z,98318.22
2022-10-04T15:27:44.150Z,98305.97
2022-10-04T15:33:11.614Z,98291.28
2022-10-04T15:38:44.481Z,98291.13
2022-10-04T15:44:05.955Z,98290.41
2022-10-04T15:49:27.415Z,98291.53
2022-10-04T15:55:07.970Z,98289.59
2022-10-04T16:00:15.675Z,98287.13
2022-10-04T16:05:32.579Z,98272.72
2022-10-04T16:10:52.718Z,98272.69
2022-10-04T16:16:25.980Z,98270.53
2022-10-04T16:21:43.179Z,98278.50
2022-10-04T16:26:45.268Z,98282.03
2022-10-04T16:31:56.030Z,98296.34
2022-10-04T16:37:12.251Z,98303.53
2022-10-04T16:42:15.769Z,98311.72
2022-10-04T16:47:32.612Z,98317.34
2022-10-04T16:52:52.785Z,98318.34
2022-10-04T16:58:38.600Z,98307.78
2022-10-04T17:03:51.376Z,98298.16
2022-10-04T17:09:11.213Z,98290.09
2022-10-04T17:14:42.798Z,98287.22
2022-10-04T17:19:56.084Z,98300.34
2022-10-04T17:25:28.689Z,98308.66
2022-10-04T17:30:48.047Z,98314.97
2022-10-04T17:36:11.284Z,98316.75
2022-10-04T17:41:44.324Z,98320.47
2022-10-04T17:47:04.701Z,98328.22
2022-10-04T17:52:52.832Z,98335.66
2022-10-04T17:58:11.289Z,98339.06
2022-10-04T18:03:23.885Z,98337.69
2022-10-04T18:08:37.493Z,98349.44
2022-10-04T18:13:47.733Z,98336.69
2022-10-04T18:18:50.867Z,98338.53
2022-10-04T18:24:01.349Z,98334.44
2022-10-04T18:29:07.926Z,98318.03
2022-10-04T18:34:28.925Z,98317.84
2022-10-04T18:39:30.690Z,98305.06
2022-10-04T18:44:47.159Z,98309.72
2022-10-04T18:49:53.322Z,98325.88
2022-10-04T18:55:14.109Z,98316.41
2022-10-04T19:00:34.465Z,98323.56
2022-10-04T19:05:51.579Z,98322.47
2022-10-04T19:10:59.846Z,98335.06
2022-10-04T19:16:32.573Z,98324.41
2022-10-04T19:21:43.250Z,98314.84
2022-10-04T19:26:50.377Z,98320.53
2022-10-04T19:32:05.806Z,98332.38
2022-10-04T19:37:27.687Z,98344.03
2022-10-04T19:42:37.355Z,98349.00
2022-10-04T19:47:52.206Z,98348.84
2022-10-04T19:53:13.437Z,98363.47
2022-10-04T19:58:26.639Z,98365.81
2022-10-04T20:03:28.903Z,98367.41
2022-10-04T20:08:51.265Z,98375.16
2022-10-04T20:14:07.112Z,98380.78
2022-10-04T20:19:17.801Z,98376.00
2022-10-04T20:24:37.721Z,98371.53
2022-10-04T20:29:39.325Z,98374.81
2022-10-04T20:34:53.600Z,98360.31
2022-10-04T20:39:56.914Z,98378.19
2022-10-04T20:45:10.669Z,98383.31
2022-10-04T20:50:34.828Z,98393.13
2022-10-04T20:55:38.937Z,98392.47
2022-10-04T21:00:52.803Z,98395.06
2022-10-04T21:06:08.259Z,98388.44
2022-10-04T21:11:19.452Z,98394.97
2022-10-04T21:16:36.800Z,98392.44
2022-10-04T21:21:48.370Z,98399.16
2022-10-04T21:26:56.991Z,98404.09
2022-10-04T21:31:59.239Z,98401.44
2022-10-04T21:37:00.908Z,98410.06
2022-10-04T21:42:02.491Z,98405.56
2022-10-04T21:47:04.138Z,98401.59
2022-10-04T21:52:06.076Z,98395.91
2022-10-04T21:57:08.689Z,98395.25
2022-10-04T22:02:10.290Z,98386.13
2022-10-04T22:07:11.914Z,98385.13
2022-10-04T22:12:13.481Z,98392.13
2022-10-04T22:17:15.017Z,98393.13
2022-10-04T22:22:17.390Z,98399.72
2022-10-04T22:27:20.392Z,98385.84
2022-10-04T22:32:27.168Z,98366.94
2022-10-04T22:37:31.063Z,98346.19
2022-10-04T22:42:32.704Z,98340.03
2022-10-04T22:47:34.290Z,98329.59
2022-10-04T22:52:35.887Z,98327.66
2022-10-04T22:57:37.432Z,98324.28
2022-10-04T23:02:39.012Z,98317.06
2022-10-04T23:07:41.716Z,98307.94
2022-10-04T23:12:49.158Z,98306.34
2022-10-04T23:17:55.610Z,98296.66
2022-10-04T23:22:59.699Z,98279.69
2022-10-04T23:28:05.900Z,98272.97
2022-10-04T23:33:25.880Z,98268.13
2022-10-04T23:38:30.173Z,98267.75
2022-10-04T23:43:32.446Z,98265.41
2022-10-04T23:48:34.226Z,98257.38
2022-10-04T23:53:36.412Z,98255.75
2022-10-04T23:58:40.781Z,98246.13
